sensor_id;sensor_type;location;lat;lon;timestamp;P1;durP1;ratioP1;P2;durP2;ratioP2
1577;SDS011;57623;53.608;10.004;2023-10-08T00:01:09;8.10;;;4.90;;
1577;SDS011;57623;53.608;10.004;2023-10-08T00:03:40;8.90;;;5.73;;
1577;SDS011;57623;53.608;10.004;2023-10-08T00:06:16;7.70;;;5.50;;
1577;SDS011;57623;53.608;10.004;2023-10-08T00:08:46;8.30;;;5.53;;
1577;SDS011;57623;53.608;10.004;2023-10-08T00:11:15;6.70;;;5.30;;
1577;SDS011;57623;53.608;10.004;2023-10-08T00:13:43;7.10;;;4.87;;
1577;SDS011;57623;53.608;10.004;2023-10-08T00:16:14;9.83;;;5.70;;
1577;SDS011;57623;53.608;10.004;2023-10-08T00:18:43;6.73;;;4.90;;
1577;SDS011;57623;53.608;10.004;2023-10-08T00:21:18;7.77;;;5.27;;
1577;SDS011;57623;53.608;10.004;2023-10-08T00:23:53;6.77;;;4.77;;
1577;SDS011;57623;53.608;10.004;2023-10-08T00:26:24;9.63;;;5.67;;
1577;SDS011;57623;53.608;10.004;2023-10-08T00:28:56;6.50;;;5.80;;
1577;SDS011;57623;53.608;10.004;2023-10-08T00:31:26;9.63;;;5.23;;
1577;SDS011;57623;53.608;10.004;2023-10-08T00:33:58;9.00;;;4.53;;
1577;SDS011;57623;53.608;10.004;2023-10-08T00:36:29;12.40;;;5.80;;
1577;SDS011;57623;53.608;10.004;2023-10-08T00:38:57;7.63;;;5.10;;
1577;SDS011;57623;53.608;10.004;2023-10-08T00:41:26;9.10;;;6.00;;
1577;SDS011;57623;53.608;10.004;2023-10-08T00:43:57;9.80;;;6.43;;
1577;SDS011;57623;53.608;10.004;2023-10-08T00:46:27;8.20;;;5.80;;
1577;SDS011;57623;53.608;10.004;2023-10-08T00:48:59;9.00;;;5.80;;
1577;SDS011;57623;53.608;10.004;2023-10-08T00:51:51;6.63;;;5.90;;
1577;SDS011;57623;53.608;10.004;2023-10-08T00:54:30;9.63;;;5.80;;
1577;SDS011;57623;53.608;10.004;2023-10-08T00:57:00;8.33;;;5.80;;
1577;SDS011;57623;53.608;10.004;2023-10-08T00:59:32;7.07;;;6.07;;
1577;SDS011;57623;53.608;10.004;2023-10-08T01:02:08;9.37;;;4.93;;
1577;SDS011;57623;53.608;10.004;2023-10-08T01:04:41;7.27;;;4.27;;
1577;SDS011;57623;53.608;10.004;2023-10-08T01:07:12;6.20;;;5.30;;
1577;SDS011;57623;53.608;10.004;2023-10-08T01:09:43;10.20;;;4.53;;
1577;SDS011;57623;53.608;10.004;2023-10-08T01:12:17;7.37;;;4.17;;
1577;SDS011;57623;53.608;10.004;2023-10-08T01:14:49;4.57;;;3.60;;
1577;SDS011;57623;53.608;10.004;2023-10-08T01:17:20;10.10;;;3.97;;
1577;SDS011;57623;53.608;10.004;2023-10-08T01:19:53;7.07;;;3.60;;
1577;SDS011;57623;53.608;10.004;2023-10-08T01:22:28;6.70;;;4.10;;
1577;SDS011;57623;53.608;10.004;2023-10-08T01:24:56;8.13;;;3.57;;
1577;SDS011;57623;53.608;10.004;2023-10-08T01:27:29;7.70;;;3.67;;
1577;SDS011;57623;53.608;10.004;2023-10-08T01:30:00;8.60;;;3.53;;
1577;SDS011;57623;53.608;10.004;2023-10-08T01:32:38;4.80;;;2.93;;
1577;SDS011;57623;53.608;10.004;2023-10-08T01:35:07;5.80;;;3.00;;
1577;SDS011;57623;53.608;10.004;2023-10-08T01:37:50;5.40;;;3.00;;
1577;SDS011;57623;53.608;10.004;2023-10-08T01:40:18;5.13;;;2.90;;
1577;SDS011;57623;53.608;10.004;2023-10-08T01:42:47;7.10;;;3.17;;
1577;SDS011;57623;53.608;10.004;2023-10-08T01:45:18;8.03;;;3.50;;
1577;SDS011;57623;53.608;10.004;2023-10-08T01:47:50;6.13;;;3.33;;
1577;SDS011;57623;53.608;10.004;2023-10-08T01:50:21;5.40;;;2.40;;
1577;SDS011;57623;53.608;10.004;2023-10-08T01:52:52;5.00;;;2.53;;
1577;SDS011;57623;53.608;10.004;2023-10-08T01:55:20;6.57;;;3.00;;
1577;SDS011;57623;53.608;10.004;2023-10-08T01:57:49;6.40;;;2.20;;
1577;SDS011;57623;53.608;10.004;2023-10-08T02:00:18;7.97;;;3.00;;
1577;SDS011;57623;53.608;10.004;2023-10-08T02:02:49;7.27;;;2.67;;
1577;SDS011;57623;53.608;10.004;2023-10-08T02:05:18;4.37;;;2.33;;
1577;SDS011;57623;53.608;10.004;2023-10-08T02:07:46;5.90;;;2.20;;
1577;SDS011;57623;53.608;10.004;2023-10-08T02:10:16;4.33;;;2.20;;
1577;SDS011;57623;53.608;10.004;2023-10-08T02:12:44;4.60;;;2.33;;
1577;SDS011;57623;53.608;10.004;2023-10-08T02:15:12;5.10;;;2.10;;
1577;SDS011;57623;53.608;10.004;2023-10-08T02:17:40;4.53;;;2.13;;
1577;SDS011;57623;53.608;10.004;2023-10-08T02:20:10;3.93;;;1.90;;
1577;SDS011;57623;53.608;10.004;2023-10-08T02:22:39;3.10;;;2.50;;
1577;SDS011;57623;53.608;10.004;2023-10-08T02:25:08;3.03;;;2.30;;
1577;SDS011;57623;53.608;10.004;2023-10-08T02:27:39;4.70;;;2.00;;
1577;SDS011;57623;53.608;10.004;2023-10-08T02:30:08;2.77;;;1.90;;
1577;SDS011;57623;53.608;10.004;2023-10-08T02:32:38;4.20;;;2.27;;
1577;SDS011;57623;53.608;10.004;2023-10-08T02:35:09;4.10;;;2.40;;
1577;SDS011;57623;53.608;10.004;2023-10-08T02:37:39;3.87;;;2.10;;
1577;SDS011;57623;53.608;10.004;2023-10-08T02:40:08;3.20;;;2.10;;
1577;SDS011;57623;53.608;10.004;2023-10-08T02:42:44;4.83;;;2.10;;
1577;SDS011;57623;53.608;10.004;2023-10-08T02:45:12;5.97;;;1.97;;
1577;SDS011;57623;53.608;10.004;2023-10-08T02:47:41;3.53;;;1.97;;
1577;SDS011;57623;53.608;10.004;2023-10-08T02:50:11;3.47;;;1.90;;
1577;SDS011;57623;53.608;10.004;2023-10-08T02:52:43;6.30;;;2.23;;
1577;SDS011;57623;53.608;10.004;2023-10-08T02:55:12;3.50;;;2.27;;
1577;SDS011;57623;53.608;10.004;2023-10-08T02:57:54;3.67;;;1.70;;
1577;SDS011;57623;53.608;10.004;2023-10-08T03:00:23;2.60;;;1.60;;
1577;SDS011;57623;53.608;10.004;2023-10-08T03:02:56;2.27;;;1.70;;
1577;SDS011;57623;53.608;10.004;2023-10-08T03:05:25;8.17;;;2.27;;
1577;SDS011;57623;53.608;10.004;2023-10-08T03:07:57;2.90;;;1.80;;
1577;SDS011;57623;53.608;10.004;2023-10-08T03:10:26;3.27;;;2.50;;
1577;SDS011;57623;53.608;10.004;2023-10-08T03:13:00;2.50;;;1.67;;
1577;SDS011;57623;53.608;10.004;2023-10-08T03:15:32;3.23;;;1.80;;
1577;SDS011;57623;53.608;10.004;2023-10-08T03:18:13;3.77;;;2.13;;
1577;SDS011;57623;53.608;10.004;2023-10-08T03:20:42;4.17;;;1.50;;
1577;SDS011;57623;53.608;10.004;2023-10-08T03:23:11;3.07;;;1.67;;
1577;SDS011;57623;53.608;10.004;2023-10-08T03:25:50;2.40;;;1.83;;
1577;SDS011;57623;53.608;10.004;2023-10-08T03:28:25;3.73;;;1.47;;
1577;SDS011;57623;53.608;10.004;2023-10-08T03:30:54;3.93;;;1.93;;
1577;SDS011;57623;53.608;10.004;2023-10-08T03:33:30;4.97;;;1.87;;
1577;SDS011;57623;53.608;10.004;2023-10-08T03:36:01;3.80;;;1.73;;
1577;SDS011;57623;53.608;10.004;2023-10-08T03:38:36;2.80;;;1.57;;
1577;SDS011;57623;53.608;10.004;2023-10-08T03:41:17;5.07;;;1.97;;
1577;SDS011;57623;53.608;10.004;2023-10-08T03:43:55;4.30;;;1.60;;
1577;SDS011;57623;53.608;10.004;2023-10-08T03:46:28;5.00;;;2.10;;
1577;SDS011;57623;53.608;10.004;2023-10-08T03:48:57;3.33;;;1.77;;
1577;SDS011;57623;53.608;10.004;2023-10-08T03:51:31;2.53;;;1.50;;
1577;SDS011;57623;53.608;10.004;2023-10-08T03:54:06;4.40;;;1.63;;
1577;SDS011;57623;53.608;10.004;2023-10-08T03:56:42;3.83;;;1.50;;
1577;SDS011;57623;53.608;10.004;2023-10-08T03:59:16;3.50;;;1.40;;
1577;SDS011;57623;53.608;10.004;2023-10-08T04:01:57;3.17;;;1.63;;
1577;SDS011;57623;53.608;10.004;2023-10-08T04:04:36;2.23;;;1.40;;
1577;SDS011;57623;53.608;10.004;2023-10-08T04:07:17;1.83;;;1.30;;
1577;SDS011;57623;53.608;10.004;2023-10-08T04:10:06;3.50;;;1.33;;
1577;SDS011;57623;53.608;10.004;2023-10-08T04:13:20;4.07;;;1.80;;
1577;SDS011;57623;53.608;10.004;2023-10-08T04:15:50;1.90;;;1.30;;
1577;SDS011;57623;53.608;10.004;2023-10-08T04:18:19;2.43;;;1.33;;
1577;SDS011;57623;53.608;10.004;2023-10-08T04:20:47;1.93;;;1.37;;
1577;SDS011;57623;53.608;10.004;2023-10-08T04:23:27;2.30;;;1.70;;
1577;SDS011;57623;53.608;10.004;2023-10-08T04:25:56;3.17;;;1.30;;
1577;SDS011;57623;53.608;10.004;2023-10-08T04:28:25;1.43;;;1.20;;
1577;SDS011;57623;53.608;10.004;2023-10-08T04:30:56;4.33;;;1.87;;
1577;SDS011;57623;53.608;10.004;2023-10-08T04:33:27;1.27;;;1.07;;
1577;SDS011;57623;53.608;10.004;2023-10-08T04:36:00;2.00;;;1.30;;
1577;SDS011;57623;53.608;10.004;2023-10-08T04:38:29;2.47;;;1.30;;
1577;SDS011;57623;53.608;10.004;2023-10-08T04:41:03;6.27;;;1.87;;
1577;SDS011;57623;53.608;10.004;2023-10-08T04:43:35;2.40;;;1.40;;
1577;SDS011;57623;53.608;10.004;2023-10-08T04:46:06;4.53;;;1.40;;
1577;SDS011;57623;53.608;10.004;2023-10-08T04:48:46;3.33;;;1.37;;
1577;SDS011;57623;53.608;10.004;2023-10-08T04:51:16;2.10;;;1.33;;
1577;SDS011;57623;53.608;10.004;2023-10-08T04:53:44;1.73;;;1.23;;
1577;SDS011;57623;53.608;10.004;2023-10-08T04:56:14;2.47;;;1.10;;
1577;SDS011;57623;53.608;10.004;2023-10-08T04:58:43;3.47;;;1.50;;
1577;SDS011;57623;53.608;10.004;2023-10-08T05:01:15;3.23;;;1.30;;
1577;SDS011;57623;53.608;10.004;2023-10-08T05:03:54;3.13;;;1.57;;
1577;SDS011;57623;53.608;10.004;2023-10-08T05:06:52;2.53;;;1.23;;
1577;SDS011;57623;53.608;10.004;2023-10-08T05:09:44;3.10;;;1.93;;
1577;SDS011;57623;53.608;10.004;2023-10-08T05:12:18;6.43;;;1.63;;
1577;SDS011;57623;53.608;10.004;2023-10-08T05:15:04;2.10;;;1.30;;
1577;SDS011;57623;53.608;10.004;2023-10-08T05:17:49;5.43;;;1.60;;
1577;SDS011;57623;53.608;10.004;2023-10-08T05:20:40;1.53;;;1.40;;
1577;SDS011;57623;53.608;10.004;2023-10-08T05:23:25;2.07;;;1.50;;
1577;SDS011;57623;53.608;10.004;2023-10-08T05:26:11;1.33;;;1.20;;
1577;SDS011;57623;53.608;10.004;2023-10-08T05:28:47;3.27;;;1.20;;
1577;SDS011;57623;53.608;10.004;2023-10-08T05:31:27;2.40;;;1.50;;
1577;SDS011;57623;53.608;10.004;2023-10-08T05:34:14;2.67;;;1.20;;
1577;SDS011;57623;53.608;10.004;2023-10-08T05:36:44;3.87;;;1.50;;
1577;SDS011;57623;53.608;10.004;2023-10-08T05:39:37;3.47;;;1.40;;
1577;SDS011;57623;53.608;10.004;2023-10-08T05:42:09;1.80;;;1.30;;
1577;SDS011;57623;53.608;10.004;2023-10-08T05:44:46;1.40;;;1.10;;
1577;SDS011;57623;53.608;10.004;2023-10-08T05:47:36;2.03;;;1.20;;
1577;SDS011;57623;53.608;10.004;2023-10-08T05:50:19;4.63;;;1.40;;
1577;SDS011;57623;53.608;10.004;2023-10-08T05:53:05;1.93;;;1.30;;
1577;SDS011;57623;53.608;10.004;2023-10-08T05:56:03;1.57;;;1.10;;
1577;SDS011;57623;53.608;10.004;2023-10-08T05:58:42;3.10;;;1.57;;
1577;SDS011;57623;53.608;10.004;2023-10-08T06:01:26;2.00;;;1.37;;
1577;SDS011;57623;53.608;10.004;2023-10-08T06:04:06;5.17;;;1.50;;
1577;SDS011;57623;53.608;10.004;2023-10-08T06:06:58;1.70;;;1.30;;
1577;SDS011;57623;53.608;10.004;2023-10-08T06:09:38;1.20;;;1.10;;
1577;SDS011;57623;53.608;10.004;2023-10-08T06:12:16;2.57;;;1.23;;
1577;SDS011;57623;53.608;10.004;2023-10-08T06:14:56;6.60;;;1.60;;
1577;SDS011;57623;53.608;10.004;2023-10-08T06:17:38;2.17;;;1.20;;
1577;SDS011;57623;53.608;10.004;2023-10-08T06:20:24;2.23;;;1.13;;
1577;SDS011;57623;53.608;10.004;2023-10-08T06:22:54;2.07;;;1.40;;
1577;SDS011;57623;53.608;10.004;2023-10-08T06:25:29;1.40;;;1.20;;
1577;SDS011;57623;53.608;10.004;2023-10-08T06:27:57;1.50;;;1.27;;
1577;SDS011;57623;53.608;10.004;2023-10-08T06:30:25;1.70;;;1.60;;
1577;SDS011;57623;53.608;10.004;2023-10-08T06:32:56;1.80;;;1.40;;
1577;SDS011;57623;53.608;10.004;2023-10-08T06:35:24;2.73;;;1.70;;
1577;SDS011;57623;53.608;10.004;2023-10-08T06:37:55;2.47;;;1.47;;
1577;SDS011;57623;53.608;10.004;2023-10-08T06:40:26;3.07;;;1.30;;
1577;SDS011;57623;53.608;10.004;2023-10-08T06:43:10;3.40;;;1.20;;
1577;SDS011;57623;53.608;10.004;2023-10-08T06:45:48;1.73;;;1.30;;
1577;SDS011;57623;53.608;10.004;2023-10-08T06:48:19;1.50;;;1.40;;
1577;SDS011;57623;53.608;10.004;2023-10-08T06:50:50;2.60;;;1.47;;
1577;SDS011;57623;53.608;10.004;2023-10-08T06:53:25;3.93;;;1.63;;
1577;SDS011;57623;53.608;10.004;2023-10-08T06:55:56;2.23;;;1.10;;
1577;SDS011;57623;53.608;10.004;2023-10-08T06:58:24;1.83;;;1.20;;
1577;SDS011;57623;53.608;10.004;2023-10-08T07:00:52;2.30;;;1.73;;
1577;SDS011;57623;53.608;10.004;2023-10-08T07:03:21;2.37;;;1.27;;
1577;SDS011;57623;53.608;10.004;2023-10-08T07:05:51;1.80;;;1.40;;
1577;SDS011;57623;53.608;10.004;2023-10-08T07:08:29;7.10;;;1.40;;
1577;SDS011;57623;53.608;10.004;2023-10-08T07:10:59;1.90;;;1.30;;
1577;SDS011;57623;53.608;10.004;2023-10-08T07:13:32;2.27;;;1.70;;
1577;SDS011;57623;53.608;10.004;2023-10-08T07:16:03;2.50;;;1.63;;
1577;SDS011;57623;53.608;10.004;2023-10-08T07:18:32;2.67;;;1.40;;
1577;SDS011;57623;53.608;10.004;2023-10-08T07:21:02;2.83;;;1.53;;
1577;SDS011;57623;53.608;10.004;2023-10-08T07:23:39;1.77;;;1.30;;
1577;SDS011;57623;53.608;10.004;2023-10-08T07:26:23;4.10;;;1.63;;
1577;SDS011;57623;53.608;10.004;2023-10-08T07:28:52;2.83;;;1.30;;
1577;SDS011;57623;53.608;10.004;2023-10-08T07:31:21;2.27;;;1.60;;
1577;SDS011;57623;53.608;10.004;2023-10-08T07:33:50;3.80;;;2.00;;
1577;SDS011;57623;53.608;10.004;2023-10-08T07:36:23;2.73;;;1.43;;
1577;SDS011;57623;53.608;10.004;2023-10-08T07:38:52;2.37;;;1.30;;
1577;SDS011;57623;53.608;10.004;2023-10-08T07:41:21;2.60;;;1.63;;
1577;SDS011;57623;53.608;10.004;2023-10-08T07:43:49;1.97;;;1.47;;
1577;SDS011;57623;53.608;10.004;2023-10-08T07:46:22;2.30;;;1.27;;
1577;SDS011;57623;53.608;10.004;2023-10-08T07:48:52;3.50;;;1.30;;
1577;SDS011;57623;53.608;10.004;2023-10-08T07:51:20;1.73;;;1.30;;
1577;SDS011;57623;53.608;10.004;2023-10-08T07:53:50;5.10;;;1.37;;
1577;SDS011;57623;53.608;10.004;2023-10-08T07:56:22;2.30;;;1.20;;
1577;SDS011;57623;53.608;10.004;2023-10-08T07:58:50;2.70;;;1.20;;
1577;SDS011;57623;53.608;10.004;2023-10-08T08:01:22;2.60;;;1.50;;
1577;SDS011;57623;53.608;10.004;2023-10-08T08:03:52;2.27;;;1.00;;
1577;SDS011;57623;53.608;10.004;2023-10-08T08:06:20;3.17;;;1.27;;
1577;SDS011;57623;53.608;10.004;2023-10-08T08:08:49;4.20;;;1.57;;
1577;SDS011;57623;53.608;10.004;2023-10-08T08:11:17;3.00;;;1.40;;
1577;SDS011;57623;53.608;10.004;2023-10-08T08:13:52;2.50;;;1.07;;
1577;SDS011;57623;53.608;10.004;2023-10-08T08:16:20;3.80;;;1.17;;
1577;SDS011;57623;53.608;10.004;2023-10-08T08:18:49;2.60;;;1.20;;
1577;SDS011;57623;53.608;10.004;2023-10-08T08:21:18;2.60;;;1.20;;
1577;SDS011;57623;53.608;10.004;2023-10-08T08:23:49;2.90;;;1.20;;
1577;SDS011;57623;53.608;10.004;2023-10-08T08:26:20;2.60;;;1.30;;
1577;SDS011;57623;53.608;10.004;2023-10-08T08:28:56;5.50;;;1.50;;
1577;SDS011;57623;53.608;10.004;2023-10-08T08:31:28;2.50;;;1.10;;
1577;SDS011;57623;53.608;10.004;2023-10-08T08:33:58;2.27;;;1.60;;
1577;SDS011;57623;53.608;10.004;2023-10-08T08:36:29;4.47;;;1.47;;
1577;SDS011;57623;53.608;10.004;2023-10-08T08:38:59;2.87;;;1.37;;
1577;SDS011;57623;53.608;10.004;2023-10-08T08:41:27;1.87;;;1.30;;
1577;SDS011;57623;53.608;10.004;2023-10-08T08:43:56;2.70;;;1.67;;
1577;SDS011;57623;53.608;10.004;2023-10-08T08:46:27;2.73;;;1.33;;
1577;SDS011;57623;53.608;10.004;2023-10-08T08:48:59;1.90;;;1.10;;
1577;SDS011;57623;53.608;10.004;2023-10-08T08:51:30;1.70;;;1.30;;
1577;SDS011;57623;53.608;10.004;2023-10-08T08:53:59;3.17;;;1.50;;
1577;SDS011;57623;53.608;10.004;2023-10-08T08:56:32;3.77;;;1.17;;
1577;SDS011;57623;53.608;10.004;2023-10-08T08:59:11;3.07;;;1.23;;
1577;SDS011;57623;53.608;10.004;2023-10-08T09:01:39;4.40;;;1.17;;
1577;SDS011;57623;53.608;10.004;2023-10-08T09:04:09;4.57;;;1.50;;
1577;SDS011;57623;53.608;10.004;2023-10-08T09:06:37;3.07;;;1.10;;
1577;SDS011;57623;53.608;10.004;2023-10-08T09:09:05;2.73;;;1.00;;
1577;SDS011;57623;53.608;10.004;2023-10-08T09:11:48;2.10;;;1.20;;
1577;SDS011;57623;53.608;10.004;2023-10-08T09:14:22;3.53;;;1.20;;
1577;SDS011;57623;53.608;10.004;2023-10-08T09:16:52;2.00;;;1.10;;
1577;SDS011;57623;53.608;10.004;2023-10-08T09:19:21;2.93;;;1.20;;
1577;SDS011;57623;53.608;10.004;2023-10-08T09:22:01;1.67;;;1.00;;
1577;SDS011;57623;53.608;10.004;2023-10-08T09:24:31;1.63;;;1.00;;
1577;SDS011;57623;53.608;10.004;2023-10-08T09:27:03;3.10;;;1.03;;
1577;SDS011;57623;53.608;10.004;2023-10-08T09:29:33;2.60;;;1.27;;
1577;SDS011;57623;53.608;10.004;2023-10-08T09:32:08;3.43;;;1.30;;
1577;SDS011;57623;53.608;10.004;2023-10-08T09:34:39;1.73;;;1.07;;
1577;SDS011;57623;53.608;10.004;2023-10-08T09:37:07;1.67;;;1.07;;
1577;SDS011;57623;53.608;10.004;2023-10-08T09:39:35;2.20;;;1.13;;
1577;SDS011;57623;53.608;10.004;2023-10-08T09:42:04;1.90;;;1.27;;
1577;SDS011;57623;53.608;10.004;2023-10-08T09:44:35;3.53;;;1.43;;
1577;SDS011;57623;53.608;10.004;2023-10-08T09:47:04;2.50;;;1.17;;
1577;SDS011;57623;53.608;10.004;2023-10-08T09:49:36;1.30;;;1.00;;
1577;SDS011;57623;53.608;10.004;2023-10-08T09:52:08;1.60;;;0.90;;
1577;SDS011;57623;53.608;10.004;2023-10-08T09:54:37;2.20;;;1.07;;
1577;SDS011;57623;53.608;10.004;2023-10-08T09:57:11;2.03;;;1.10;;
1577;SDS011;57623;53.608;10.004;2023-10-08T09:59:40;2.40;;;1.10;;
1577;SDS011;57623;53.608;10.004;2023-10-08T10:02:10;2.90;;;1.13;;
1577;SDS011;57623;53.608;10.004;2023-10-08T10:04:41;2.03;;;0.80;;
1577;SDS011;57623;53.608;10.004;2023-10-08T10:07:11;2.33;;;0.90;;
1577;SDS011;57623;53.608;10.004;2023-10-08T10:09:44;2.63;;;1.47;;
1577;SDS011;57623;53.608;10.004;2023-10-08T10:12:17;1.67;;;1.43;;
1577;SDS011;57623;53.608;10.004;2023-10-08T10:14:53;2.10;;;0.90;;
1577;SDS011;57623;53.608;10.004;2023-10-08T10:17:23;1.97;;;1.00;;
1577;SDS011;57623;53.608;10.004;2023-10-08T10:20:10;1.47;;;1.03;;
1577;SDS011;57623;53.608;10.004;2023-10-08T10:22:41;2.60;;;0.93;;
1577;SDS011;57623;53.608;10.004;2023-10-08T10:25:11;2.03;;;1.00;;
1577;SDS011;57623;53.608;10.004;2023-10-08T10:30:48;3.93;;;1.20;;
1577;SDS011;57623;53.608;10.004;2023-10-08T10:33:19;2.37;;;1.03;;
1577;SDS011;57623;53.608;10.004;2023-10-08T10:35:53;1.70;;;1.00;;
1577;SDS011;57623;53.608;10.004;2023-10-08T10:38:22;1.47;;;0.80;;
1577;SDS011;57623;53.608;10.004;2023-10-08T10:40:53;1.13;;;0.70;;
1577;SDS011;57623;53.608;10.004;2023-10-08T10:43:24;3.20;;;1.27;;
1577;SDS011;57623;53.608;10.004;2023-10-08T10:46:00;2.87;;;1.20;;
1577;SDS011;57623;53.608;10.004;2023-10-08T10:48:50;1.70;;;0.97;;
1577;SDS011;57623;53.608;10.004;2023-10-08T10:51:32;3.33;;;0.70;;
1577;SDS011;57623;53.608;10.004;2023-10-08T10:54:00;1.07;;;0.93;;
1577;SDS011;57623;53.608;10.004;2023-10-08T10:56:34;1.10;;;0.77;;
1577;SDS011;57623;53.608;10.004;2023-10-08T10:59:08;0.83;;;0.70;;
1577;SDS011;57623;53.608;10.004;2023-10-08T11:01:46;4.87;;;0.90;;
1577;SDS011;57623;53.608;10.004;2023-10-08T11:04:18;1.77;;;0.77;;
1577;SDS011;57623;53.608;10.004;2023-10-08T11:06:55;2.10;;;1.00;;
1577;SDS011;57623;53.608;10.004;2023-10-08T11:09:24;2.30;;;0.97;;
1577;SDS011;57623;53.608;10.004;2023-10-08T11:12:02;2.73;;;1.00;;
1577;SDS011;57623;53.608;10.004;2023-10-08T11:14:38;1.33;;;1.00;;
1577;SDS011;57623;53.608;10.004;2023-10-08T11:17:10;3.30;;;0.90;;
1577;SDS011;57623;53.608;10.004;2023-10-08T11:19:41;1.40;;;0.90;;
1577;SDS011;57623;53.608;10.004;2023-10-08T11:22:12;1.53;;;0.97;;
1577;SDS011;57623;53.608;10.004;2023-10-08T11:24:43;1.60;;;1.00;;
1577;SDS011;57623;53.608;10.004;2023-10-08T11:27:14;3.50;;;1.30;;
1577;SDS011;57623;53.608;10.004;2023-10-08T11:29:55;4.40;;;1.30;;
1577;SDS011;57623;53.608;10.004;2023-10-08T11:32:26;2.17;;;1.07;;
1577;SDS011;57623;53.608;10.004;2023-10-08T11:34:59;4.70;;;1.20;;
1577;SDS011;57623;53.608;10.004;2023-10-08T11:37:44;1.17;;;1.07;;
1577;SDS011;57623;53.608;10.004;2023-10-08T11:40:21;2.53;;;1.10;;
1577;SDS011;57623;53.608;10.004;2023-10-08T11:42:54;2.00;;;1.20;;
1577;SDS011;57623;53.608;10.004;2023-10-08T11:45:24;1.20;;;1.10;;
1577;SDS011;57623;53.608;10.004;2023-10-08T11:47:55;2.30;;;1.30;;
1577;SDS011;57623;53.608;10.004;2023-10-08T11:50:24;1.50;;;1.40;;
1577;SDS011;57623;53.608;10.004;2023-10-08T11:52:57;1.80;;;0.93;;
1577;SDS011;57623;53.608;10.004;2023-10-08T11:55:30;1.70;;;1.20;;
1577;SDS011;57623;53.608;10.004;2023-10-08T11:58:02;1.50;;;0.90;;
1577;SDS011;57623;53.608;10.004;2023-10-08T12:00:37;1.80;;;1.10;;
1577;SDS011;57623;53.608;10.004;2023-10-08T12:03:12;1.37;;;1.27;;
1577;SDS011;57623;53.608;10.004;2023-10-08T12:05:45;1.30;;;1.03;;
1577;SDS011;57623;53.608;10.004;2023-10-08T12:08:25;1.67;;;1.10;;
1577;SDS011;57623;53.608;10.004;2023-10-08T12:10:55;2.90;;;1.10;;
1577;SDS011;57623;53.608;10.004;2023-10-08T12:13:26;1.30;;;1.03;;
1577;SDS011;57623;53.608;10.004;2023-10-08T12:15:55;1.23;;;0.77;;
1577;SDS011;57623;53.608;10.004;2023-10-08T12:18:33;1.10;;;1.00;;
1577;SDS011;57623;53.608;10.004;2023-10-08T12:21:06;1.97;;;1.03;;
1577;SDS011;57623;53.608;10.004;2023-10-08T12:23:37;1.57;;;1.03;;
1577;SDS011;57623;53.608;10.004;2023-10-08T12:26:05;1.40;;;1.03;;
1577;SDS011;57623;53.608;10.004;2023-10-08T12:28:35;1.93;;;1.33;;
1577;SDS011;57623;53.608;10.004;2023-10-08T12:31:03;1.80;;;1.13;;
1577;SDS011;57623;53.608;10.004;2023-10-08T12:33:31;1.30;;;1.07;;
1577;SDS011;57623;53.608;10.004;2023-10-08T12:36:01;1.20;;;0.87;;
1577;SDS011;57623;53.608;10.004;2023-10-08T12:38:38;0.83;;;0.83;;
1577;SDS011;57623;53.608;10.004;2023-10-08T12:41:08;2.10;;;1.23;;
1577;SDS011;57623;53.608;10.004;2023-10-08T12:43:40;2.07;;;1.23;;
1577;SDS011;57623;53.608;10.004;2023-10-08T12:46:12;4.03;;;1.43;;
1577;SDS011;57623;53.608;10.004;2023-10-08T12:48:52;3.00;;;1.47;;
1577;SDS011;57623;53.608;10.004;2023-10-08T12:51:22;1.37;;;0.97;;
1577;SDS011;57623;53.608;10.004;2023-10-08T12:53:52;1.23;;;1.00;;
1577;SDS011;57623;53.608;10.004;2023-10-08T12:56:30;2.13;;;1.10;;
1577;SDS011;57623;53.608;10.004;2023-10-08T12:59:05;1.77;;;1.03;;
1577;SDS011;57623;53.608;10.004;2023-10-08T13:01:34;1.60;;;1.00;;
1577;SDS011;57623;53.608;10.004;2023-10-08T13:04:04;1.33;;;1.17;;
1577;SDS011;57623;53.608;10.004;2023-10-08T13:06:42;1.10;;;1.00;;
1577;SDS011;57623;53.608;10.004;2023-10-08T13:09:12;1.03;;;0.93;;
1577;SDS011;57623;53.608;10.004;2023-10-08T13:11:40;1.80;;;1.10;;
1577;SDS011;57623;53.608;10.004;2023-10-08T13:14:09;1.63;;;1.20;;
1577;SDS011;57623;53.608;10.004;2023-10-08T13:16:39;1.47;;;1.20;;
1577;SDS011;57623;53.608;10.004;2023-10-08T13:19:08;3.53;;;1.10;;
1577;SDS011;57623;53.608;10.004;2023-10-08T13:21:36;1.10;;;1.00;;
1577;SDS011;57623;53.608;10.004;2023-10-08T13:24:05;1.40;;;1.20;;
1577;SDS011;57623;53.608;10.004;2023-10-08T13:26:35;0.93;;;0.90;;
1577;SDS011;57623;53.608;10.004;2023-10-08T13:29:05;3.77;;;1.20;;
1577;SDS011;57623;53.608;10.004;2023-10-08T13:31:36;2.73;;;1.40;;
1577;SDS011;57623;53.608;10.004;2023-10-08T13:34:04;2.23;;;1.13;;
1577;SDS011;57623;53.608;10.004;2023-10-08T13:36:36;1.90;;;1.00;;
1577;SDS011;57623;53.608;10.004;2023-10-08T13:39:05;1.63;;;0.90;;
1577;SDS011;57623;53.608;10.004;2023-10-08T13:41:36;2.17;;;1.50;;
1577;SDS011;57623;53.608;10.004;2023-10-08T13:44:08;2.13;;;1.60;;
1577;SDS011;57623;53.608;10.004;2023-10-08T13:46:39;2.87;;;1.67;;
1577;SDS011;57623;53.608;10.004;2023-10-08T13:49:14;1.70;;;1.60;;
1577;SDS011;57623;53.608;10.004;2023-10-08T13:51:44;1.43;;;1.20;;
1577;SDS011;57623;53.608;10.004;2023-10-08T13:54:13;1.20;;;1.10;;
1577;SDS011;57623;53.608;10.004;2023-10-08T13:56:42;1.57;;;0.90;;
1577;SDS011;57623;53.608;10.004;2023-10-08T13:59:15;2.20;;;1.20;;
1577;SDS011;57623;53.608;10.004;2023-10-08T14:01:44;1.30;;;0.93;;
1577;SDS011;57623;53.608;10.004;2023-10-08T14:04:14;1.53;;;1.10;;
1577;SDS011;57623;53.608;10.004;2023-10-08T14:06:47;1.00;;;0.90;;
1577;SDS011;57623;53.608;10.004;2023-10-08T14:09:19;1.43;;;1.10;;
1577;SDS011;57623;53.608;10.004;2023-10-08T14:11:48;1.17;;;1.00;;
1577;SDS011;57623;53.608;10.004;2023-10-08T14:14:19;1.30;;;0.90;;
1577;SDS011;57623;53.608;10.004;2023-10-08T14:16:51;2.83;;;1.40;;
1577;SDS011;57623;53.608;10.004;2023-10-08T14:19:20;5.17;;;1.20;;
1577;SDS011;57623;53.608;10.004;2023-10-08T14:21:56;1.67;;;1.27;;
1577;SDS011;57623;53.608;10.004;2023-10-08T14:24:29;1.50;;;1.40;;
1577;SDS011;57623;53.608;10.004;2023-10-08T14:27:02;1.57;;;1.20;;
1577;SDS011;57623;53.608;10.004;2023-10-08T14:29:36;1.43;;;1.30;;
1577;SDS011;57623;53.608;10.004;2023-10-08T14:32:07;1.40;;;1.10;;
1577;SDS011;57623;53.608;10.004;2023-10-08T14:34:36;1.87;;;1.27;;
1577;SDS011;57623;53.608;10.004;2023-10-08T14:37:24;2.00;;;1.33;;
1577;SDS011;57623;53.608;10.004;2023-10-08T14:40:11;3.70;;;1.60;;
1577;SDS011;57623;53.608;10.004;2023-10-08T14:42:57;1.93;;;1.43;;
1577;SDS011;57623;53.608;10.004;2023-10-08T14:45:30;2.73;;;1.47;;
1577;SDS011;57623;53.608;10.004;2023-10-08T14:48:03;1.30;;;1.20;;
1577;SDS011;57623;53.608;10.004;2023-10-08T14:50:37;2.40;;;1.30;;
1577;SDS011;57623;53.608;10.004;2023-10-08T14:53:08;2.90;;;1.10;;
1577;SDS011;57623;53.608;10.004;2023-10-08T14:55:36;2.83;;;1.43;;
1577;SDS011;57623;53.608;10.004;2023-10-08T14:58:04;1.63;;;1.50;;
1577;SDS011;57623;53.608;10.004;2023-10-08T15:00:35;2.80;;;1.90;;
1577;SDS011;57623;53.608;10.004;2023-10-08T15:03:04;4.57;;;2.30;;
1577;SDS011;57623;53.608;10.004;2023-10-08T15:05:34;3.37;;;2.17;;
1577;SDS011;57623;53.608;10.004;2023-10-08T15:08:04;2.93;;;1.60;;
1577;SDS011;57623;53.608;10.004;2023-10-08T15:10:38;2.20;;;1.93;;
1577;SDS011;57623;53.608;10.004;2023-10-08T15:13:06;4.23;;;1.80;;
1577;SDS011;57623;53.608;10.004;2023-10-08T15:15:34;1.93;;;1.47;;
1577;SDS011;57623;53.608;10.004;2023-10-08T15:18:02;3.63;;;1.67;;
1577;SDS011;57623;53.608;10.004;2023-10-08T15:20:33;3.20;;;1.90;;
1577;SDS011;57623;53.608;10.004;2023-10-08T15:23:01;2.70;;;1.40;;
1577;SDS011;57623;53.608;10.004;2023-10-08T15:25:29;2.20;;;1.50;;